NWWW METAR and TAF weather

Enter ICAO airport designator
Station Type Date Time Source
NWWW METAR 2021/09/20 04:30 UTC NOAA

NWWW 200430Z AUTO 15017KT CAVOK 25/14 Q1015 BECMG VRB02KT


Station Type Date Time Source
NWWW Decoded METAR 2021/09/20 04:30 UTC NOAA

La Tontouta Nlle-Caledonie , New Caledonia (NWWW) 22-01S 166-13E 14M
Sep 20, 2021 - 12:30 AM EDT / 2021.09.20 0430 UTC
Wind: from the SSE (150 degrees) at 20 MPH (17 KT):0
Visibility: greater than 7 mile(s):0
Temperature: 77 F (25 C)
Dew Point: 57 F (14 C)
Relative Humidity: 50%
Pressure (altimeter): 29.97 in. Hg (1015 hPa)
ob: NWWW 200430Z AUTO 15017KT CAVOK 25/14 Q1015 BECMG VRB02KT
cycle: 4

Station Type Date Time Source
NWWW TAF 2021/09/19 18:03 UTC NOAA

TAF NWWW 191700Z 1918/2018 05005KT 9999 FEW055
BECMG 1922/1924 10012KT

Example: see airport list